Time;durP1;ratioP1;P1;durP2;ratioP2;P2;SDS_P1;SDS_P2;PMS_P1;PMS_P2;Temp;Humidity;BMP_temperature;BMP_pressure;BME280_temperature;BME280_humidity;BME280_pressure;Samples;Min_cycle;Max_cycle;Signal;HPM_P1;HPM_P2
2022/03/11 00:02:31;;;;;;;12.50;6.90;;;;;;;6.60;34.89;99159.75;2625173;54;20030;-66
2022/03/11 00:05:01;;;;;;;10.65;7.43;;;;;;;6.59;34.90;99158.09;2625015;54;20029;-67
2022/03/11 00:07:33;;;;;;;10.80;7.47;;;;;;;6.58;34.60;99159.91;2624839;47;20069;-66
2022/03/11 00:10:03;;;;;;;11.32;6.68;;;;;;;6.59;35.08;99158.09;2625394;39;20429;-66
2022/03/11 00:12:33;;;;;;;10.00;7.05;;;;;;;6.56;34.86;99147.91;2624934;54;20038;-67
2022/03/11 00:15:02;;;;;;;9.82;6.72;;;;;;;6.55;34.63;99151.53;2625339;46;20506;-66
2022/03/11 00:17:32;;;;;;;10.25;6.70;;;;;;;6.51;34.94;99156.25;2625608;39;20477;-66
2022/03/11 00:20:02;;;;;;;9.30;7.05;;;;;;;6.51;34.84;99148.38;2624678;54;20034;-67
2022/03/11 00:22:34;;;;;;;11.43;7.65;;;;;;;6.51;35.05;99151.00;2624052;47;20533;-67
2022/03/11 00:25:04;;;;;;;13.70;7.93;;;;;;;6.56;34.89;99147.91;2624740;39;20457;-66
2022/03/11 00:27:34;;;;;;;11.18;6.68;;;;;;;6.56;34.82;99158.41;2624495;54;20034;-67
2022/03/11 00:30:03;;;;;;;12.63;7.05;;;;;;;6.47;34.55;99151.47;2625038;47;20022;-69
2022/03/11 00:32:35;;;;;;;11.88;6.38;;;;;;;6.37;34.95;99151.63;2625136;54;20137;-66
2022/03/11 00:35:07;;;;;;;9.85;6.78;;;;;;;6.33;35.13;99150.28;2623693;54;20789;-67
2022/03/11 00:37:40;;;;;;;10.52;6.63;;;;;;;6.29;34.97;99149.78;2624755;39;20457;-67
2022/03/11 00:40:12;;;;;;;11.45;6.50;;;;;;;6.26;35.03;99154.50;2624835;54;20534;-66
2022/03/11 00:42:42;;;;;;;12.43;6.60;;;;;;;6.21;35.05;99147.09;2624141;54;20526;-66
2022/03/11 00:45:12;;;;;;;8.90;6.18;;;;;;;6.22;35.16;99146.13;2624146;54;20037;-67
2022/03/11 00:47:42;;;;;;;9.60;6.45;;;;;;;6.24;35.43;99151.19;2623968;54;20538;-67
2022/03/11 00:50:12;;;;;;;12.25;7.15;;;;;;;6.20;35.29;99151.53;2624175;54;20552;-66
2022/03/11 00:52:45;;;;;;;8.93;6.55;;;;;;;6.24;35.45;99152.03;2623674;54;20034;-67
2022/03/11 00:55:14;;;;;;;9.30;6.57;;;;;;;6.23;35.41;99139.88;2622463;54;20541;-67
2022/03/11 00:57:46;;;;;;;11.05;6.60;;;;;;;6.20;35.59;99134.94;2624128;39;20445;-68
2022/03/11 01:00:17;;;;;;;9.27;6.80;;;;;;;6.17;35.36;99145.78;2623232;54;20038;-67
2022/03/11 01:02:48;;;;;;;13.00;6.93;;;;;;;6.12;35.76;99132.25;2623858;54;20034;-67
2022/03/11 01:05:19;;;;;;;10.23;6.97;;;;;;;6.09;35.76;99135.22;2623806;54;20038;-66
2022/03/11 01:07:51;;;;;;;10.65;6.70;;;;;;;6.04;35.89;99130.44;2624618;54;20030;-66
2022/03/11 01:10:22;;;;;;;12.10;6.70;;;;;;;6.02;36.07;99126.31;2624382;54;20030;-67
2022/03/11 01:12:51;;;;;;;9.68;6.82;;;;;;;6.00;36.31;99123.00;2623963;51;20057;-67
2022/03/11 01:15:21;;;;;;;13.55;7.22;;;;;;;6.00;36.02;99117.75;2624472;54;20053;-67
2022/03/11 01:17:51;;;;;;;11.25;6.80;;;;;;;6.00;36.14;99125.63;2623790;54;20031;-68
2022/03/11 01:20:20;;;;;;;10.60;6.82;;;;;;;5.98;36.67;99120.56;2623909;54;20537;-67
2022/03/11 01:22:53;;;;;;;10.98;7.90;;;;;;;5.96;36.50;99117.28;2623232;47;20038;-67
2022/03/11 01:25:23;;;;;;;11.32;7.95;;;;;;;5.93;36.85;99120.22;2623565;54;20026;-66
2022/03/11 01:27:52;;;;;;;12.40;6.47;;;;;;;5.92;36.64;99118.56;2623981;54;20046;-67
2022/03/11 01:30:22;;;;;;;9.63;7.18;;;;;;;5.92;36.86;99121.19;2623620;39;20444;-68
2022/03/11 01:32:53;;;;;;;12.13;7.38;;;;;;;5.88;36.63;99119.81;2621928;54;20018;-67
2022/03/11 01:35:23;;;;;;;11.82;6.65;;;;;;;5.87;36.82;99126.84;2621904;54;20034;-67
2022/03/11 01:37:55;;;;;;;9.23;6.97;;;;;;;5.82;37.04;99123.88;2622778;54;20034;-67
2022/03/11 01:40:25;;;;;;;10.20;7.30;;;;;;;5.81;36.84;99118.78;2624708;54;20046;-68
2022/03/11 01:42:55;;;;;;;9.05;6.65;;;;;;;5.81;37.19;99122.22;2624654;54;20034;-67
2022/03/11 01:45:25;;;;;;;10.35;7.47;;;;;;;5.79;37.38;99125.97;2624176;54;20035;-68
2022/03/11 01:47:54;;;;;;;9.77;6.95;;;;;;;5.80;37.21;99122.41;2623333;54;20033;-67
2022/03/11 01:50:24;;;;;;;10.52;6.90;;;;;;;5.76;37.61;99121.88;2621947;54;20030;-68
2022/03/11 01:52:57;;;;;;;11.65;8.00;;;;;;;5.74;37.57;99110.69;2621332;54;20023;-68
2022/03/11 01:55:26;;;;;;;16.75;7.57;;;;;;;5.72;37.66;99120.53;2620994;47;20019;-67
2022/03/11 01:57:56;;;;;;;11.52;8.07;;;;;;;5.64;38.07;99116.06;2621415;54;20027;-67
2022/03/11 02:00:26;;;;;;;12.00;7.80;;;;;;;5.61;37.87;99121.59;2621490;54;20038;-66
2022/03/11 02:02:55;;;;;;;10.70;7.38;;;;;;;5.62;37.87;99117.16;2621655;54;20046;-68
2022/03/11 02:05:26;;;;;;;11.07;7.72;;;;;;;5.58;38.08;99121.91;2623516;54;20046;-67
2022/03/11 02:07:58;;;;;;;13.93;8.02;;;;;;;5.53;38.45;99110.22;2623372;54;20038;-67
2022/03/11 02:10:30;;;;;;;13.45;8.57;;;;;;;5.49;38.32;99114.94;2623970;47;20035;-67
2022/03/11 02:13:00;;;;;;;8.90;6.95;;;;;;;5.50;38.75;99115.78;2623409;47;20045;-67
2022/03/11 02:15:30;;;;;;;11.57;8.00;;;;;;;5.48;38.86;99113.31;2623618;47;20041;-67
2022/03/11 02:18:01;;;;;;;11.23;7.85;;;;;;;5.50;38.85;99113.97;2624698;54;20034;-67
2022/03/11 02:20:31;;;;;;;13.32;8.40;;;;;;;5.46;38.78;99104.75;2624263;54;20037;-67
2022/03/11 02:23:06;;;;;;;10.40;7.47;;;;;;;5.43;38.91;99100.66;2623579;54;20041;-67
2022/03/11 02:25:38;;;;;;;10.73;7.47;;;;;;;5.42;39.18;99099.00;2624195;54;20030;-67
2022/03/11 02:28:08;;;;;;;11.18;7.90;;;;;;;5.40;39.40;99095.72;2624887;54;20065;-68
2022/03/11 02:30:37;;;;;;;11.65;7.45;;;;;;;5.37;39.45;99096.00;2625906;39;20441;-67
2022/03/11 02:33:07;;;;;;;12.32;8.02;;;;;;;5.34;39.88;99104.16;2625253;39;20407;-66
2022/03/11 02:35:36;;;;;;;12.73;8.43;;;;;;;5.31;39.82;99098.44;2625701;39;20438;-66
2022/03/11 02:38:06;;;;;;;11.68;9.10;;;;;;;5.31;40.07;99094.00;2624482;54;20037;-66
2022/03/11 02:40:39;;;;;;;11.55;7.72;;;;;;;5.31;40.21;99095.81;2624694;54;20518;-66
2022/03/11 02:43:08;;;;;;;13.05;8.25;;;;;;;5.29;40.36;99095.13;2624855;54;20038;-67
2022/03/11 02:45:38;;;;;;;12.32;8.35;;;;;;;5.24;40.12;99095.59;2624410;54;20030;-66
2022/03/11 02:48:08;;;;;;;10.93;8.30;;;;;;;5.21;40.18;99090.63;2624064;47;20041;-67
2022/03/11 02:50:38;;;;;;;12.57;8.60;;;;;;;5.16;40.86;99085.84;2625051;47;20026;-66
2022/03/11 02:53:07;;;;;;;12.23;8.00;;;;;;;5.16;41.04;99093.72;2625850;39;20410;-67
2022/03/11 02:55:40;;;;;;;11.57;8.35;;;;;;;5.11;41.05;99085.50;2625106;54;20110;-66
2022/03/11 02:58:10;;;;;;;11.68;8.35;;;;;;;5.12;41.23;99083.69;2625153;54;20045;-67
2022/03/11 03:00:39;;;;;;;12.20;8.65;;;;;;;5.10;41.25;99083.00;2625554;54;20046;-66
2022/03/11 03:03:09;;;;;;;13.48;8.40;;;;;;;5.03;41.25;99079.34;2623831;54;20157;-67
2022/03/11 03:05:39;;;;;;;11.60;8.00;;;;;;;5.03;41.52;99077.56;2623673;39;20484;-67
2022/03/11 03:08:09;;;;;;;13.10;8.80;;;;;;;5.02;41.80;99081.16;2623641;54;20027;-67
2022/03/11 03:10:41;;;;;;;11.75;8.30;;;;;;;4.98;41.74;99085.06;2625310;39;20401;-67
2022/03/11 03:13:13;;;;;;;12.98;9.27;;;;;;;4.93;41.97;99082.03;2623863;54;20030;-67
2022/03/11 03:15:43;;;;;;;14.70;8.45;;;;;;;4.90;42.47;99083.19;2623209;54;20036;-66
2022/03/11 03:18:12;;;;;;;14.40;9.38;;;;;;;4.88;42.31;99077.25;2623042;54;20030;-67
2022/03/11 03:20:42;;;;;;;12.82;8.60;;;;;;;4.88;42.66;99087.72;2622859;54;20042;-67
2022/03/11 03:23:12;;;;;;;12.25;8.85;;;;;;;4.84;42.75;99078.50;2622441;47;20556;-67
2022/03/11 03:25:45;;;;;;;12.35;8.85;;;;;;;4.84;43.18;99085.56;2623873;54;20038;-67
2022/03/11 03:28:14;;;;;;;14.05;9.82;;;;;;;4.80;43.20;99082.41;2625092;54;20094;-67
2022/03/11 03:30:44;;;;;;;15.73;9.18;;;;;;;4.80;43.28;99084.22;2626405;39;20488;-67
2022/03/11 03:33:14;;;;;;;14.15;9.30;;;;;;;4.79;42.95;99087.81;2624991;54;20034;-67
2022/03/11 03:35:43;;;;;;;12.98;9.30;;;;;;;4.74;43.68;99087.44;2625154;54;20033;-67
2022/03/11 03:38:13;;;;;;;22.00;9.68;;;;;;;4.69;43.87;99086.09;2625271;39;20437;-67
2022/03/11 03:40:45;;;;;;;14.13;8.90;;;;;;;4.67;44.00;99092.44;2624973;54;20045;-67
2022/03/11 03:43:15;;;;;;;14.70;9.77;;;;;;;4.63;44.15;99091.06;2624708;54;20034;-67
2022/03/11 03:45:44;;;;;;;13.55;10.07;;;;;;;4.61;44.45;99083.38;2625057;54;20045;-67
2022/03/11 03:48:14;;;;;;;16.85;10.05;;;;;;;4.58;44.78;99093.31;2624487;54;20026;-67
2022/03/11 03:50:44;;;;;;;14.77;10.13;;;;;;;4.56;44.62;99090.00;2624432;54;20030;-67
2022/03/11 03:53:13;;;;;;;17.30;9.82;;;;;;;4.53;45.17;99087.69;2625855;54;20041;-67
2022/03/11 03:55:46;;;;;;;17.00;10.80;;;;;;;4.50;45.17;99085.38;2624648;54;20562;-67
2022/03/11 03:58:15;;;;;;;16.38;10.50;;;;;;;4.50;45.20;99086.19;2625002;54;20585;-67
2022/03/11 04:00:45;;;;;;;15.68;10.52;;;;;;;4.49;45.43;99087.19;2624525;54;20049;-66
2022/03/11 04:03:15;;;;;;;19.10;11.85;;;;;;;4.47;45.48;99086.47;2624253;54;20022;-66
2022/03/11 04:05:44;;;;;;;21.50;13.20;;;;;;;4.50;45.97;99086.19;2623788;54;20078;-66
2022/03/11 04:08:14;;;;;;;17.27;11.38;;;;;;;4.50;45.91;99088.00;2625344;54;20042;-66
2022/03/11 04:10:46;;;;;;;20.00;11.57;;;;;;;4.47;45.83;99086.47;2625533;54;20041;-66
2022/03/11 04:13:16;;;;;;;15.20;10.63;;;;;;;4.40;46.11;99095.88;2625500;54;20038;-66
2022/03/11 04:15:45;;;;;;;16.92;11.15;;;;;;;4.37;46.33;99088.34;2624946;54;20783;-66
2022/03/11 04:18:15;;;;;;;17.02;12.00;;;;;;;4.34;46.37;99091.25;2624819;54;20087;-66
2022/03/11 04:20:45;;;;;;;16.27;11.43;;;;;;;4.33;46.25;99087.81;2624042;54;20038;-67
2022/03/11 04:23:14;;;;;;;20.27;12.15;;;;;;;4.31;46.35;99091.53;2624301;54;20057;-66
2022/03/11 04:25:47;;;;;;;17.58;11.73;;;;;;;4.30;46.54;99092.50;2624397;54;20038;-66
2022/03/11 04:28:16;;;;;;;16.73;11.65;;;;;;;4.25;46.52;99092.94;2625143;54;20580;-66
2022/03/11 04:30:46;;;;;;;18.08;11.70;;;;;;;4.23;46.87;99092.25;2623512;54;20039;-66
2022/03/11 04:33:15;;;;;;;18.38;12.57;;;;;;;4.19;46.82;99088.28;2623702;54;20028;-67
2022/03/11 04:35:45;;;;;;;18.50;12.43;;;;;;;4.16;46.90;99093.78;2623333;54;20022;-67
2022/03/11 04:38:15;;;;;;;18.23;12.80;;;;;;;4.14;46.95;99095.75;2623100;54;20039;-67
2022/03/11 04:40:47;;;;;;;19.00;13.02;;;;;;;4.13;47.22;99094.91;2624470;54;20041;-69
2022/03/11 04:43:17;;;;;;;22.80;13.07;;;;;;;4.12;47.45;99095.91;2623529;54;20149;-66
2022/03/11 04:45:46;;;;;;;18.58;13.13;;;;;;;4.09;47.34;99097.97;2623573;54;20041;-66
2022/03/11 04:48:16;;;;;;;21.50;14.10;;;;;;;4.07;47.84;99100.72;2623755;47;20061;-69
2022/03/11 04:50:46;;;;;;;21.48;13.80;;;;;;;4.06;47.82;99095.63;2623973;54;20023;-68
2022/03/11 04:53:16;;;;;;;19.83;14.27;;;;;;;4.03;47.92;99093.31;2623867;54;20033;-67
2022/03/11 04:55:48;;;;;;;22.25;13.82;;;;;;;4.00;47.96;99090.97;2623694;54;20030;-67
2022/03/11 04:58:18;;;;;;;22.10;13.88;;;;;;;3.95;48.23;99097.44;2624649;54;20030;-66
2022/03/11 05:00:54;;;;;;;22.80;13.68;;;;;;;3.94;48.06;99095.81;2622522;47;20030;-66
2022/03/11 05:03:26;;;;;;;18.63;12.88;;;;;;;3.89;48.12;99098.03;2622949;54;20027;-67
2022/03/11 05:05:56;;;;;;;20.55;15.45;;;;;;;3.86;48.31;99100.94;2623163;54;20037;-66
2022/03/11 05:08:25;;;;;;;22.15;14.60;;;;;;;3.87;48.56;99093.91;2623286;54;20053;-66
2022/03/11 05:10:58;;;;;;;25.33;14.95;;;;;;;3.82;48.62;99091.72;2624716;54;20042;-67
2022/03/11 05:13:30;;;;;;;24.65;15.55;;;;;;;3.78;48.57;99092.97;2623925;54;20081;-67
2022/03/11 05:18:35;;;;;;;21.75;15.00;;;;;;;3.76;48.43;99087.06;2623777;47;20034;-71
2022/03/11 05:21:06;;;;;;;24.60;16.48;;;;;;;3.72;48.79;99088.31;2625141;54;20035;-70
2022/03/11 05:23:36;;;;;;;21.40;15.23;;;;;;;3.68;48.77;99084.34;2622449;54;20043;-71
2022/03/11 05:26:24;;;;;;;23.58;15.40;;;;;;;3.65;48.84;99082.81;2621762;47;20097;-71
2022/03/11 05:28:55;;;;;;;26.83;16.23;;;;;;;3.62;48.85;99087.50;2621817;54;20089;-73
2022/03/11 05:31:24;;;;;;;24.63;15.05;;;;;;;3.60;48.87;99087.66;2621947;54;20045;-71
2022/03/11 05:33:55;;;;;;;23.20;16.40;;;;;;;3.57;49.09;99092.34;2624365;54;20038;-70
2022/03/11 05:36:25;;;;;;;25.23;16.17;;;;;;;3.56;49.10;99094.13;2621448;54;20034;-71
2022/03/11 05:38:54;;;;;;;24.48;15.52;;;;;;;3.56;48.91;99090.69;2621727;54;20030;-70
2022/03/11 05:41:27;;;;;;;24.90;15.15;;;;;;;3.56;49.01;99094.13;2621734;54;20038;-70
2022/03/11 05:43:57;;;;;;;27.13;15.65;;;;;;;3.57;48.73;99103.63;2621375;54;20046;-71
2022/03/11 05:46:26;;;;;;;26.92;16.42;;;;;;;3.56;49.00;99101.16;2622551;47;20030;-71
2022/03/11 05:48:56;;;;;;;23.70;15.13;;;;;;;3.52;48.71;99107.63;2622969;47;20034;-70
2022/03/11 05:51:26;;;;;;;26.77;16.33;;;;;;;3.51;49.05;99100.72;2623891;54;20038;-70
2022/03/11 05:53:55;;;;;;;24.80;16.40;;;;;;;3.47;49.25;99102.81;2623572;54;20034;-70
2022/03/11 05:56:28;;;;;;;23.38;16.30;;;;;;;3.41;49.21;99109.41;2623741;54;20038;-70
2022/03/11 05:58:57;;;;;;;26.38;16.00;;;;;;;3.39;49.28;99106.13;2623852;47;20034;-71
2022/03/11 06:01:27;;;;;;;22.02;15.93;;;;;;;3.36;49.13;99103.78;2621938;50;20079;-71
2022/03/11 06:03:57;;;;;;;25.02;16.00;;;;;;;3.39;49.45;99105.31;2621874;54;20034;-70
2022/03/11 06:06:27;;;;;;;26.17;16.50;;;;;;;3.39;49.26;99105.31;2622161;54;20027;-70
2022/03/11 06:08:56;;;;;;;23.55;15.63;;;;;;;3.37;49.19;99109.84;2621921;54;20038;-70
2022/03/11 06:11:29;;;;;;;27.65;16.98;;;;;;;3.36;49.05;99103.78;2622560;54;20041;-70
2022/03/11 06:13:59;;;;;;;25.15;16.45;;;;;;;3.35;49.22;99098.72;2622680;54;20031;-71
2022/03/11 06:16:28;;;;;;;25.10;16.88;;;;;;;3.33;49.16;99101.44;2623340;54;20034;-70
2022/03/11 06:18:58;;;;;;;23.50;15.88;;;;;;;3.34;48.84;99097.88;2622662;46;20027;-71
2022/03/11 06:21:28;;;;;;;25.95;16.73;;;;;;;3.33;48.68;99101.44;2622956;54;20821;-70
2022/03/11 06:23:57;;;;;;;26.95;15.68;;;;;;;3.32;48.81;99104.22;2619777;47;20038;-70
2022/03/11 06:26:30;;;;;;;27.90;16.52;;;;;;;3.35;49.01;99110.00;2619638;54;20031;-70
2022/03/11 06:28:59;;;;;;;29.00;16.77;;;;;;;3.40;48.60;99104.34;2620755;54;20038;-69
2022/03/11 06:31:29;;;;;;;23.98;16.17;;;;;;;3.41;48.53;99109.41;2620169;54;20027;-71
2022/03/11 06:33:59;;;;;;;25.98;16.05;;;;;;;3.41;48.37;99117.25;2620146;54;20045;-70
2022/03/11 06:36:29;;;;;;;23.90;16.52;;;;;;;3.42;48.29;99112.84;2621029;54;20031;-70
2022/03/11 06:39:00;;;;;;;24.70;16.38;;;;;;;3.42;48.08;99112.84;2620953;54;20042;-70
2022/03/11 06:41:32;;;;;;;24.80;16.98;;;;;;;3.43;47.95;99104.88;2618282;47;20022;-70
2022/03/11 06:44:02;;;;;;;24.65;16.83;;;;;;;3.42;47.81;99103.22;2619434;54;20030;-70
2022/03/11 06:46:32;;;;;;;25.55;16.20;;;;;;;3.49;47.85;99108.72;2619029;54;20030;-71
2022/03/11 06:49:01;;;;;;;26.83;16.77;;;;;;;3.53;47.88;99104.03;2619336;39;20461;-68
2022/03/11 06:51:31;;;;;;;22.40;15.23;;;;;;;3.55;47.73;99105.56;2619012;54;20126;-71
2022/03/11 06:54:06;;;;;;;25.23;15.80;;;;;;;3.53;47.74;99098.81;2623208;54;20041;-71
2022/03/11 06:56:38;;;;;;;27.67;17.40;;;;;;;3.61;47.54;99104.16;2624697;54;20031;-71
2022/03/11 06:59:10;;;;;;;21.73;15.07;;;;;;;3.65;47.04;99100.31;2624394;54;20034;-71
2022/03/11 07:01:40;;;;;;;22.83;15.23;;;;;;;3.67;47.01;99098.34;2628052;54;20045;-71
2022/03/11 07:04:09;;;;;;;25.25;14.98;;;;;;;3.73;47.14;99109.09;2629193;39;20387;-71
2022/03/11 07:06:39;;;;;;;23.90;14.07;;;;;;;3.80;46.31;99104.13;2628489;54;20039;-71
2022/03/11 07:09:09;;;;;;;25.33;15.50;;;;;;;3.79;46.52;99115.53;2627927;54;20046;-70
2022/03/11 07:11:41;;;;;;;22.30;15.27;;;;;;;3.88;46.43;99111.28;2626968;54;20026;-71
2022/03/11 07:14:10;;;;;;;23.98;15.40;;;;;;;3.96;45.61;99114.81;2626476;47;20038;-72
2022/03/11 07:16:40;;;;;;;23.52;15.43;;;;;;;3.95;45.71;99112.31;2626494;54;20093;-71
2022/03/11 07:19:10;;;;;;;21.67;15.32;;;;;;;3.96;45.54;99125.28;2619293;54;20039;-70
2022/03/11 07:21:40;;;;;;;20.65;13.73;;;;;;;4.01;45.31;99114.38;2619082;54;20039;-70
2022/03/11 07:24:10;;;;;;;20.95;14.05;;;;;;;4.03;45.36;99114.22;2619040;39;20649;-70
2022/03/11 07:26:42;;;;;;;22.70;14.52;;;;;;;4.08;45.04;99115.47;2619444;54;20082;-70
2022/03/11 07:29:12;;;;;;;21.10;14.43;;;;;;;4.14;45.22;99122.72;2618477;54;20072;-70
2022/03/11 07:31:42;;;;;;;22.75;13.95;;;;;;;4.20;44.66;99116.94;2618737;54;20030;-71
2022/03/11 07:34:11;;;;;;;23.17;14.60;;;;;;;4.27;44.64;99113.72;2618127;54;20026;-70
2022/03/11 07:36:41;;;;;;;20.88;14.27;;;;;;;4.35;44.43;99100.75;2618044;47;20027;-70
2022/03/11 07:39:12;;;;;;;21.17;15.10;;;;;;;4.37;44.32;99101.44;2619064;54;20077;-70
2022/03/11 07:41:44;;;;;;;22.77;14.98;;;;;;;4.45;44.21;99104.16;2622383;47;20027;-70
2022/03/11 07:44:14;;;;;;;19.08;13.40;;;;;;;4.55;44.17;99104.09;2624241;54;20069;-70
2022/03/11 07:46:51;;;;;;;21.27;14.15;;;;;;;4.58;43.51;99107.22;2624927;54;20038;-69
2022/03/11 07:49:22;;;;;;;21.42;14.30;;;;;;;4.69;43.36;99104.41;2624614;54;20589;-71
2022/03/11 07:51:52;;;;;;;19.98;14.93;;;;;;;4.73;43.09;99107.53;2624367;47;20034;-70
2022/03/11 07:54:22;;;;;;;23.85;14.65;;;;;;;4.75;43.04;99105.59;2620134;47;20031;-71
2022/03/11 07:56:55;;;;;;;20.90;14.93;;;;;;;4.78;42.97;99104.50;2618769;47;20038;-72
2022/03/11 07:59:28;;;;;;;23.15;13.95;;;;;;;4.87;42.78;99103.59;2619031;54;20026;-69
2022/03/11 08:01:58;;;;;;;22.40;13.47;;;;;;;4.95;42.61;99106.31;2619099;54;20030;-69
2022/03/11 08:04:29;;;;;;;19.95;14.32;;;;;;;5.05;42.57;99104.41;2618533;54;20026;-70
2022/03/11 08:06:59;;;;;;;23.52;15.63;;;;;;;5.18;42.64;99097.03;2618976;54;20572;-69
2022/03/11 08:09:29;;;;;;;20.35;14.07;;;;;;;5.29;42.45;99101.19;2622506;47;20026;-70
2022/03/11 08:12:02;;;;;;;19.98;14.60;;;;;;;5.36;41.97;99098.78;2627171;47;20142;-70
2022/03/11 08:14:31;;;;;;;22.02;14.85;;;;;;;5.47;41.98;99091.50;2622018;47;20560;-69
2022/03/11 08:17:01;;;;;;;20.02;14.20;;;;;;;5.51;41.43;99093.81;2619050;54;20034;-69
2022/03/11 08:19:31;;;;;;;19.00;13.00;;;;;;;5.51;41.73;99085.94;2618399;54;20030;-69
2022/03/11 08:22:02;;;;;;;18.80;12.95;;;;;;;5.56;41.35;99096.81;2618689;54;20037;-69
2022/03/11 08:24:32;;;;;;;24.17;14.55;;;;;;;5.60;41.22;99087.66;2618216;54;20073;-70
2022/03/11 08:27:04;;;;;;;18.65;13.02;;;;;;;5.76;41.08;99086.94;2618367;54;20046;-70
2022/03/11 08:29:34;;;;;;;18.88;13.20;;;;;;;5.85;41.13;99093.88;2618406;54;20542;-69
2022/03/11 08:32:07;;;;;;;19.38;12.38;;;;;;;5.95;40.48;99084.94;2617989;54;20125;-70
2022/03/11 08:34:37;;;;;;;17.00;12.60;;;;;;;5.97;40.31;99086.59;2617926;54;20031;-70
2022/03/11 08:37:24;;;;;;;19.95;13.43;;;;;;;5.98;39.81;99077.75;2619073;54;20034;-69
2022/03/11 08:39:55;;;;;;;19.90;13.00;;;;;;;5.97;39.50;99066.44;2619679;54;20093;-69
2022/03/11 08:42:27;;;;;;;20.42;13.57;;;;;;;5.94;39.80;99072.81;2618628;54;20039;-69
2022/03/11 08:44:59;;;;;;;23.42;13.35;;;;;;;6.01;39.92;99061.69;2618583;39;20418;-70
2022/03/11 08:47:29;;;;;;;17.75;13.77;;;;;;;6.13;40.10;99060.44;2618727;39;20104;-69
2022/03/11 08:49:59;;;;;;;18.45;12.55;;;;;;;6.25;39.63;99068.84;2617726;54;20057;-69
2022/03/11 08:52:29;;;;;;;18.80;14.15;;;;;;;6.30;39.34;99062.13;2618601;54;20038;-69
2022/03/11 08:54:59;;;;;;;21.25;14.05;;;;;;;6.36;39.52;99061.50;2618489;39;20453;-69
2022/03/11 08:57:32;;;;;;;17.25;12.63;;;;;;;6.49;39.28;99066.31;2617386;46;20045;-69
2022/03/11 09:00:02;;;;;;;19.25;13.88;;;;;;;6.52;38.93;99065.97;2618198;54;20030;-70
2022/03/11 09:02:32;;;;;;;22.45;14.13;;;;;;;6.60;38.99;99065.19;2618544;39;20435;-68
2022/03/11 09:05:02;;;;;;;20.45;12.13;;;;;;;6.73;38.16;99062.06;2617626;47;20026;-69
2022/03/11 09:07:37;;;;;;;20.77;14.80;;;;;;;6.72;38.23;99070.94;2618371;54;20065;-68
2022/03/11 09:10:09;;;;;;;18.67;12.80;;;;;;;6.78;38.46;99070.31;2618384;54;20061;-68
2022/03/11 09:12:43;;;;;;;20.83;13.23;;;;;;;6.84;38.42;99074.91;2618143;54;20038;-68
2022/03/11 09:15:13;;;;;;;18.50;13.37;;;;;;;6.92;38.01;99078.38;2618788;39;20391;-68
2022/03/11 09:17:44;;;;;;;19.55;13.77;;;;;;;7.02;37.94;99077.38;2618862;54;20562;-68
2022/03/11 09:20:15;;;;;;;18.45;12.88;;;;;;;7.06;37.61;99078.72;2620201;54;20605;-68
2022/03/11 09:22:57;;;;;;;20.77;13.52;;;;;;;7.12;37.55;99073.63;2620013;47;20608;-69
2022/03/11 09:25:26;;;;;;;18.23;13.20;;;;;;;7.16;37.66;99074.94;2619437;54;20065;-69
2022/03/11 09:27:58;;;;;;;18.23;12.82;;;;;;;7.20;37.22;99068.38;2619481;54;20038;-69
2022/03/11 09:30:28;;;;;;;18.38;12.85;;;;;;;7.24;37.21;99068.06;2620350;54;20041;-67
2022/03/11 09:32:59;;;;;;;17.60;13.05;;;;;;;7.31;37.81;99069.03;2619869;54;20026;-69
2022/03/11 09:35:32;;;;;;;18.63;12.48;;;;;;;7.46;37.37;99067.38;2617086;47;20138;-68
2022/03/11 09:38:01;;;;;;;23.65;12.13;;;;;;;7.57;36.73;99060.94;2618298;39;20454;-69
2022/03/11 09:40:33;;;;;;;20.15;13.25;;;;;;;7.60;36.81;99069.34;2617836;54;20027;-68
2022/03/11 09:43:07;;;;;;;18.52;12.38;;;;;;;7.70;36.52;99067.34;2617752;54;20535;-69
2022/03/11 09:45:37;;;;;;;16.05;12.35;;;;;;;7.78;36.67;99073.56;2616928;54;20033;-67
2022/03/11 09:48:08;;;;;;;18.17;12.57;;;;;;;7.90;36.46;99066.97;2618315;39;20433;-70
2022/03/11 09:50:43;;;;;;;19.00;13.07;;;;;;;7.97;36.28;99062.66;2618068;54;20081;-69
2022/03/11 09:53:14;;;;;;;17.52;12.90;;;;;;;8.08;36.33;99072.84;2618132;54;20038;-69
2022/03/11 09:55:44;;;;;;;17.60;13.15;;;;;;;8.14;35.71;99069.53;2617830;54;20057;-69
2022/03/11 09:58:17;;;;;;;19.35;13.15;;;;;;;8.23;35.38;99070.31;2617574;54;20039;-69
2022/03/11 10:00:50;;;;;;;21.88;14.10;;;;;;;8.30;35.48;99058.09;2618196;39;20409;-69
2022/03/11 10:03:20;;;;;;;18.27;13.75;;;;;;;8.43;35.32;99053.13;2617100;47;20033;-68
2022/03/11 10:05:51;;;;;;;19.40;13.60;;;;;;;8.53;34.88;99038.91;2617709;54;20027;-69
2022/03/11 10:08:33;;;;;;;15.82;12.48;;;;;;;8.64;34.19;99046.41;2617748;54;20031;-70
2022/03/11 10:11:18;;;;;;;19.65;13.73;;;;;;;8.68;34.93;99051.16;2617932;54;20046;-69
2022/03/11 10:13:54;;;;;;;18.83;13.23;;;;;;;8.73;34.32;99057.72;2617197;47;20057;-68
2022/03/11 10:16:26;;;;;;;17.88;12.95;;;;;;;8.73;34.27;99058.53;2617047;47;20034;-69
2022/03/11 10:19:01;;;;;;;18.88;12.85;;;;;;;8.74;34.25;99049.66;2617670;54;20030;-69
2022/03/11 10:21:32;;;;;;;19.40;12.50;;;;;;;8.80;34.48;99043.69;2617031;54;20027;-66
2022/03/11 10:24:03;;;;;;;16.70;12.55;;;;;;;8.95;34.31;99041.13;2617676;54;20558;-67
2022/03/11 10:26:35;;;;;;;15.57;11.82;;;;;;;9.08;34.09;99038.69;2617526;54;20043;-69
2022/03/11 10:29:14;;;;;;;18.13;12.38;;;;;;;9.15;33.54;99047.56;2617210;47;20031;-69
2022/03/11 10:31:45;;;;;;;14.32;11.52;;;;;;;9.16;33.26;99049.19;2616968;51;20034;-69
2022/03/11 10:34:17;;;;;;;19.55;12.43;;;;;;;9.22;33.66;99042.38;2617369;54;20046;-68
2022/03/11 10:36:53;;;;;;;16.63;12.63;;;;;;;9.29;33.40;99032.75;2616957;54;20022;-69
2022/03/11 10:39:26;;;;;;;15.88;11.75;;;;;;;9.34;33.04;99033.03;2617815;54;20030;-70
2022/03/11 10:42:18;;;;;;;14.40;11.50;;;;;;;9.37;33.01;99030.03;2617545;54;20026;-69
2022/03/11 10:45:01;;;;;;;15.85;12.13;;;;;;;9.42;33.04;99019.75;2617462;54;20038;-70
2022/03/11 10:47:34;;;;;;;15.40;12.05;;;;;;;9.50;33.48;99020.69;2617496;54;20027;-70
2022/03/11 10:50:06;;;;;;;15.13;11.25;;;;;;;9.61;32.59;99025.53;2617114;47;20049;-70
2022/03/11 10:52:38;;;;;;;14.98;11.85;;;;;;;9.72;32.54;99021.63;2617485;54;20034;-70
2022/03/11 10:55:20;;;;;;;14.32;12.10;;;;;;;9.77;32.39;99017.44;2618161;31;20569;-71
2022/03/11 10:57:50;;;;;;;16.75;11.25;;;;;;;9.84;32.40;99014.91;2617228;47;20026;-70
2022/03/11 11:00:25;;;;;;;15.98;10.25;;;;;;;10.00;32.32;99014.69;2617971;47;20027;-70
2022/03/11 11:02:57;;;;;;;16.80;12.07;;;;;;;9.97;31.65;99009.78;2617828;54;20044;-69
2022/03/11 11:05:28;;;;;;;15.60;11.77;;;;;;;10.05;31.99;99007.03;2617717;54;20030;-68
2022/03/11 11:07:59;;;;;;;14.27;10.55;;;;;;;10.17;32.14;99002.94;2618143;54;20022;-69
2022/03/11 11:10:30;;;;;;;16.95;12.02;;;;;;;10.30;31.75;99007.56;2618199;51;20038;-69
2022/03/11 11:13:00;;;;;;;14.30;11.30;;;;;;;10.37;31.26;99000.56;2618389;47;20027;-69
2022/03/11 11:15:33;;;;;;;18.85;11.13;;;;;;;10.41;31.36;98995.72;2617851;54;20027;-66
2022/03/11 11:18:09;;;;;;;14.90;11.38;;;;;;;10.44;31.03;98997.16;2623836;54;20055;-66
2022/03/11 11:20:43;;;;;;;17.98;10.95;;;;;;;10.42;31.16;98994.69;2624137;54;20029;-66
2022/03/11 11:23:12;;;;;;;14.30;11.10;;;;;;;10.51;31.19;98979.53;2623733;54;20023;-66
2022/03/11 11:25:44;;;;;;;13.82;10.73;;;;;;;10.64;31.02;98985.78;2623393;54;20034;-66
2022/03/11 11:28:18;;;;;;;14.10;10.85;;;;;;;10.66;30.49;98978.47;2624432;54;20038;-66
2022/03/11 11:30:55;;;;;;;12.93;10.25;;;;;;;10.62;30.69;98979.06;2624631;39;20432;-67
2022/03/11 11:33:25;;;;;;;14.45;9.95;;;;;;;10.73;30.11;98970.59;2624639;54;20050;-66
2022/03/11 11:36:01;;;;;;;13.32;9.90;;;;;;;10.84;30.40;98959.50;2623732;47;20034;-66
2022/03/11 11:38:35;;;;;;;12.93;10.85;;;;;;;10.97;29.95;98952.69;2623866;47;20085;-66
2022/03/11 11:41:25;;;;;;;15.75;10.27;;;;;;;11.03;30.10;98947.47;2623796;54;20030;-65
2022/03/11 11:43:57;;;;;;;18.02;12.23;;;;;;;11.17;29.88;98943.09;2623044;54;20031;-65
2022/03/11 11:46:30;;;;;;;14.15;10.80;;;;;;;11.31;29.66;98941.38;2624610;46;20038;-66
2022/03/11 11:49:07;;;;;;;16.92;11.20;;;;;;;11.31;29.22;98934.25;2625415;54;20050;-66